Cerberus, Victoria

4:10 AM AEDT on February 01, 2015 (GMT +1100)
Crib Point | Change Station
CLOSE
Current Station
Personal Weather Station
Location: Crib Point, VICTORIA
Elevation: 95 ft
Nearby Weather Stations

Elev 95 ft 38.36 °S, 145.20 °E | Updated 1 second ago

Rain
Rain
57.4 °F
Feels Like 57.4 °F
N
0.0
Wind Variable Wind from North
Gusts 6.9 mph

Today
High -- | Low -- °F
--% Chance of Precip.
Yesterday
High -- | Low -- °F
Precip. -- in
6:31 AM 8:33 PM
Waxing Gibbous, 90% visible
Pressure 29.89 in
Visibility 6.2 miles
Clouds Scattered Clouds 1100 ft
Mostly Cloudy 1600 ft
Overcast 3800 ft
Dew Point 57 °F
Humidity 99%
Rainfall 0.00 in
Snow Depth Not available.
UV 0 out of 12
Pollen Not available.
Air Quality Not available.
Flu Activity Not available.
SPECI YMEN 311708Z AUTO 24011KT 9999 // SCT011 BKN016 OVC038 13/12 Q1012

More Conditions Fewer Conditions

Pressure 29.89 in
Visibility 6.2 miles
Clouds Scattered Clouds 1100 ft
Mostly Cloudy 1600 ft
Overcast 3800 ft
Dew Point 57 °F
Humidity 99%
Rainfall 0.00 in
Snow Depth Not available.
UV 0 out of 12
Pollen Not available.
Air Quality Not available.
Flu Activity Not available.
SPECI YMEN 311708Z AUTO 24011KT 9999 // SCT011 BKN016 OVC038 13/12 Q1012

More Conditions Fewer Conditions

10-Day Weather Forecast

Almanac

Astronomy

Feb. 01, 2015 Rise Set
Actual Time
Civil Twilight
Nautical Twilight
Astronomical Twilight
Moon
Length of Visible Light
Length of Day
Tomorrow will be .
, % of the Moon is Illuminated

Today's Extremes

Country Highs Country Lows

Community

WunderPhotos

Upload Photos

1,792,122 photos uploaded!

WunderBlogs® & News

Nearby

Air Quality

  Air Quality AQ Index Pollutant
Not available.

Snow Depth

Station Depth Elevation

Earthquake Activity

City Distance Mag. Time & Date
Minimum magnitude displayed is 2.5.

Coastal Water Temperatures

Place Temperature

Nearby Weather Stations